createdAt,value
2023-04-09T00:00:44.622Z,2.27
2023-04-09T00:03:11.628Z,3.50
2023-04-09T00:05:41.560Z,3.67
2023-04-09T00:08:08.607Z,3.30
2023-04-09T00:10:35.557Z,4.60
2023-04-09T00:13:02.395Z,3.50
2023-04-09T00:15:31.571Z,3.10
2023-04-09T00:17:59.344Z,4.03
2023-04-09T00:20:26.306Z,3.10
2023-04-09T00:22:53.232Z,5.33
2023-04-09T00:25:20.307Z,5.27
2023-04-09T00:27:47.250Z,3.97
2023-04-09T00:30:14.133Z,2.10
2023-04-09T00:32:41.104Z,4.40
2023-04-09T00:35:09.046Z,4.00
2023-04-09T00:37:35.890Z,4.03
2023-04-09T00:40:02.900Z,5.43
2023-04-09T00:42:37.520Z,2.80
2023-04-09T00:45:06.361Z,4.27
2023-04-09T00:47:35.524Z,4.77
2023-04-09T00:50:03.549Z,3.57
2023-04-09T00:52:31.023Z,5.33
2023-04-09T00:55:00.947Z,3.53
2023-04-09T00:57:28.845Z,5.73
2023-04-09T00:59:56.056Z,5.10
2023-04-09T01:02:23.114Z,4.77
2023-04-09T01:04:50.905Z,5.27
2023-04-09T01:07:54.790Z,4.77
2023-04-09T01:10:32.806Z,5.00
2023-04-09T01:13:18.067Z,5.60
2023-04-09T01:15:53.813Z,6.70
2023-04-09T01:18:47.090Z,4.13
2023-04-09T01:21:19.349Z,5.77
2023-04-09T01:23:55.049Z,4.73
2023-04-09T01:27:04.073Z,5.63
2023-04-09T01:32:14.132Z,5.97
2023-04-09T01:34:42.414Z,4.73
2023-04-09T01:37:09.527Z,3.97
2023-04-09T01:39:38.291Z,7.43
2023-04-09T01:42:09.587Z,5.20
2023-04-09T01:44:39.354Z,7.77
2023-04-09T01:47:08.605Z,6.67
2023-04-09T01:49:36.405Z,5.30
2023-04-09T01:52:04.033Z,6.53
2023-04-09T01:54:30.945Z,5.57
2023-04-09T01:56:58.206Z,6.83
2023-04-09T01:59:25.285Z,6.33
2023-04-09T02:02:07.655Z,5.17
2023-04-09T02:04:43.177Z,5.40
2023-04-09T02:07:37.151Z,6.83
2023-04-09T02:10:07.023Z,7.83
2023-04-09T02:12:39.156Z,6.87
2023-04-09T02:15:07.290Z,5.70
2023-04-09T02:17:34.234Z,6.67
2023-04-09T02:20:01.110Z,6.33
2023-04-09T02:22:28.034Z,6.03
2023-04-09T02:24:54.882Z,6.97
2023-04-09T02:27:21.738Z,9.20
2023-04-09T02:29:48.587Z,3.77
2023-04-09T02:32:15.388Z,8.07
2023-04-09T02:34:42.524Z,5.83
2023-04-09T02:37:09.384Z,7.20
2023-04-09T02:39:36.239Z,9.97
2023-04-09T02:42:03.039Z,7.27
2023-04-09T02:44:29.894Z,6.33
2023-04-09T02:46:56.776Z,6.00
2023-04-09T02:49:23.682Z,7.47
2023-04-09T02:51:50.532Z,8.70
2023-04-09T02:54:17.420Z,8.47
2023-04-09T02:56:44.262Z,6.53
2023-04-09T02:59:11.082Z,6.30
2023-04-09T03:01:38.059Z,7.67
2023-04-09T03:04:05.096Z,6.90
2023-04-09T03:06:32.050Z,6.03
2023-04-09T03:08:58.864Z,7.70
2023-04-09T03:11:25.709Z,7.53
2023-04-09T03:13:52.529Z,7.20
2023-04-09T03:16:19.432Z,8.63
2023-04-09T03:18:46.316Z,8.00
2023-04-09T03:21:14.863Z,8.00
2023-04-09T03:23:42.050Z,7.97
2023-04-09T03:26:08.917Z,5.87
2023-04-09T03:28:36.064Z,5.33
2023-04-09T03:31:02.950Z,6.27
2023-04-09T03:33:29.818Z,7.60
2023-04-09T03:35:56.696Z,8.77
2023-04-09T03:38:23.607Z,10.70
2023-04-09T03:40:50.413Z,8.33
2023-04-09T03:43:17.250Z,9.57
2023-04-09T03:45:44.066Z,8.20
2023-04-09T03:48:10.943Z,8.83
2023-04-09T03:50:41.706Z,9.83
2023-04-09T03:53:08.655Z,10.93
2023-04-09T03:55:35.585Z,9.33
2023-04-09T03:58:02.485Z,8.57
2023-04-09T04:00:29.314Z,9.60
2023-04-09T04:02:56.350Z,7.03
2023-04-09T04:05:27.533Z,8.23
2023-04-09T04:07:54.927Z,10.17
2023-04-09T04:10:21.831Z,10.90
2023-04-09T04:12:48.680Z,8.53
2023-04-09T04:15:15.578Z,13.03
2023-04-09T04:17:42.486Z,9.10
2023-04-09T04:20:09.902Z,10.03
2023-04-09T04:22:36.739Z,8.77
2023-04-09T04:25:06.920Z,9.50
2023-04-09T04:27:33.694Z,7.40
2023-04-09T04:30:01.992Z,11.20
2023-04-09T04:32:29.328Z,9.40
2023-04-09T04:34:56.256Z,9.23
2023-04-09T04:37:23.065Z,8.67
2023-04-09T04:39:49.979Z,11.80
2023-04-09T04:42:17.346Z,9.37
2023-04-09T04:44:44.882Z,7.07
2023-04-09T04:47:11.800Z,9.23
2023-04-09T04:49:38.665Z,10.33
2023-04-09T04:52:07.589Z,12.73
2023-04-09T04:54:34.579Z,12.23
2023-04-09T04:57:01.470Z,11.87
2023-04-09T04:59:28.647Z,9.57
2023-04-09T05:01:55.855Z,9.90
2023-04-09T05:04:23.034Z,6.27
2023-04-09T05:06:49.900Z,6.60
2023-04-09T05:09:16.792Z,6.10
2023-04-09T05:11:43.658Z,10.53
2023-04-09T05:14:10.804Z,9.77
2023-04-09T05:16:37.652Z,12.13
2023-04-09T05:19:04.564Z,13.27
2023-04-09T05:21:32.026Z,12.00
2023-04-09T05:23:59.048Z,8.70
2023-04-09T05:26:26.861Z,9.93
2023-04-09T05:28:53.781Z,9.40
2023-04-09T05:31:20.863Z,11.30
2023-04-09T05:33:47.761Z,11.77
2023-04-09T05:36:18.676Z,10.80
2023-04-09T05:38:47.422Z,12.13
2023-04-09T05:41:14.439Z,10.57
2023-04-09T05:43:42.747Z,9.33
2023-04-09T05:46:09.613Z,10.30
2023-04-09T05:48:36.887Z,11.47
2023-04-09T05:51:04.111Z,9.03
2023-04-09T05:53:32.087Z,10.13
2023-04-09T05:55:59.053Z,3.53
2023-04-09T05:58:25.944Z,9.10
2023-04-09T06:00:52.822Z,9.40
2023-04-09T06:03:20.589Z,4.87
2023-04-09T06:05:48.233Z,7.53
2023-04-09T06:08:15.286Z,9.13
2023-04-09T06:10:42.155Z,10.13
2023-04-09T06:13:10.414Z,10.97
2023-04-09T06:15:39.129Z,9.90
2023-04-09T06:18:06.249Z,10.00
2023-04-09T06:20:33.337Z,10.00
2023-04-09T06:23:00.285Z,9.90
2023-04-09T06:25:27.290Z,10.47
2023-04-09T06:27:54.162Z,10.13
2023-04-09T06:30:21.042Z,8.87
2023-04-09T06:32:54.234Z,8.50
2023-04-09T06:35:22.147Z,8.50
2023-04-09T06:37:49.128Z,6.70
2023-04-09T06:40:16.100Z,14.60
2023-04-09T06:42:43.000Z,9.27
2023-04-09T06:45:10.240Z,10.60
2023-04-09T06:47:37.184Z,10.47
2023-04-09T06:50:04.824Z,12.90
2023-04-09T06:52:31.685Z,10.77
2023-04-09T06:54:58.600Z,11.70
2023-04-09T06:57:26.329Z,11.87
2023-04-09T06:59:53.163Z,11.07
2023-04-09T07:02:20.415Z,10.13
2023-04-09T07:04:47.865Z,11.87
2023-04-09T07:07:15.011Z,15.10
2023-04-09T07:09:42.577Z,12.53
2023-04-09T07:12:09.442Z,13.60
2023-04-09T07:14:36.272Z,10.87
2023-04-09T07:17:03.125Z,8.87
2023-04-09T07:19:29.984Z,15.33
2023-04-09T07:21:56.883Z,12.10
2023-04-09T07:24:23.761Z,14.47
2023-04-09T07:26:52.084Z,12.90
2023-04-09T07:29:20.749Z,12.57
2023-04-09T07:31:47.865Z,13.57
2023-04-09T07:34:14.754Z,12.67
2023-04-09T07:36:42.927Z,13.27
2023-04-09T07:39:10.106Z,12.80
2023-04-09T07:41:37.524Z,12.27
2023-04-09T07:44:06.186Z,14.00
2023-04-09T07:46:33.215Z,8.80
2023-04-09T07:49:00.295Z,14.73
2023-04-09T07:51:27.746Z,11.70
2023-04-09T07:53:54.660Z,13.00
2023-04-09T07:56:21.514Z,13.13
2023-04-09T07:58:49.191Z,14.50
2023-04-09T08:01:16.144Z,11.90
